Time;durP1;ratioP1;P1;durP2;ratioP2;P2;SDS_P1;SDS_P2;PMS_P1;PMS_P2;Temp;Humidity;BMP_temperature;BMP_pressure;BME280_temperature;BME280_humidity;BME280_pressure;Samples;Min_cycle;Max_cycle;Signal;HPM_P1;HPM_P2
2023/04/09 00:01:50;;;;;;;4.97;3.92;;;11.20;99.90;;;;;;5114672;28;20391;-63
2023/04/09 00:04:16;;;;;;;5.22;3.88;;;11.20;99.90;;;;;;5114686;28;20023;-63
2023/04/09 00:06:41;;;;;;;4.72;3.78;;;11.30;99.90;;;;;;5114740;28;20464;-63
2023/04/09 00:09:07;;;;;;;5.22;3.78;;;11.10;99.90;;;;;;5114513;28;20381;-63
2023/04/09 00:11:32;;;;;;;6.45;3.80;;;11.00;99.90;;;;;;5114119;28;20035;-63
2023/04/09 00:13:58;;;;;;;5.30;3.28;;;11.00;99.90;;;;;;5114498;28;20039;-63
2023/04/09 00:16:24;;;;;;;5.40;3.30;;;11.10;99.90;;;;;;5114151;28;20088;-64
2023/04/09 00:18:50;;;;;;;4.68;3.42;;;11.10;99.90;;;;;;5114514;28;20353;-63
2023/04/09 00:21:16;;;;;;;5.88;3.40;;;11.20;99.90;;;;;;5114437;28;20015;-63
2023/04/09 00:23:42;;;;;;;5.30;3.65;;;11.20;99.90;;;;;;5114105;28;20028;-63
2023/04/09 00:26:08;;;;;;;4.78;3.67;;;11.20;99.90;;;;;;5114217;28;20058;-63
2023/04/09 00:28:34;;;;;;;5.88;3.47;;;11.20;99.90;;;;;;5113825;28;20032;-64
2023/04/09 00:31:01;;;;;;;6.00;3.60;;;11.10;99.90;;;;;;5113431;28;20027;-63
2023/04/09 00:33:26;;;;;;;4.53;3.22;;;11.00;99.90;;;;;;5113951;28;20037;-63
2023/04/09 00:35:52;;;;;;;4.45;3.80;;;11.00;99.90;;;;;;5114102;28;20102;-63
2023/04/09 00:38:18;;;;;;;5.35;3.83;;;10.70;99.90;;;;;;5113835;28;20084;-63
2023/04/09 00:40:48;;;;;;;6.05;4.13;;;10.70;99.90;;;;;;5113782;28;20467;-63
2023/04/09 00:43:14;;;;;;;6.45;3.88;;;10.60;99.90;;;;;;5113536;28;20073;-63
2023/04/09 00:45:40;;;;;;;4.05;3.65;;;10.50;99.90;;;;;;5113829;28;20032;-64
2023/04/09 00:48:06;;;;;;;4.45;3.50;;;10.50;99.90;;;;;;5113581;28;20023;-64
2023/04/09 00:50:32;;;;;;;4.22;3.50;;;10.50;99.90;;;;;;5113719;28;20024;-63
2023/04/09 00:52:57;;;;;;;4.43;3.30;;;10.50;99.90;;;;;;5113965;28;20023;-63
2023/04/09 00:55:24;;;;;;;4.22;3.30;;;10.50;99.90;;;;;;5113434;28;20439;-63
2023/04/09 00:57:50;;;;;;;4.22;3.40;;;10.40;99.90;;;;;;5113122;28;20016;-63
2023/04/09 01:00:15;;;;;;;5.05;3.30;;;10.40;99.90;;;;;;5113959;28;20535;-63
2023/04/09 01:02:42;;;;;;;5.40;3.25;;;10.40;99.90;;;;;;5113511;28;20506;-63
2023/04/09 01:05:09;;;;;;;3.65;3.22;;;10.30;99.90;;;;;;5113485;28;20464;-64
2023/04/09 01:08:05;;;;;;;3.70;3.17;;;10.30;99.90;;;;;;5113653;28;20022;-64
2023/04/09 01:10:52;;;;;;;4.13;3.20;;;10.20;99.90;;;;;;5113452;28;20110;-63
2023/04/09 01:13:29;;;;;;;4.93;3.15;;;10.20;99.90;;;;;;5113756;28;20422;-63
2023/04/09 01:15:58;;;;;;;3.47;3.05;;;10.20;99.90;;;;;;5113118;28;20024;-63
2023/04/09 01:18:44;;;;;;;3.40;3.10;;;10.20;99.90;;;;;;5113288;28;20570;-64
2023/04/09 01:21:16;;;;;;;5.03;3.30;;;10.00;99.90;;;;;;5113096;28;20031;-63
2023/04/09 01:23:57;;;;;;;3.70;3.38;;;10.00;99.90;;;;;;5112960;28;20011;-64
2023/04/09 01:27:00;;;;;;;4.28;3.38;;;10.00;99.90;;;;;;5112420;28;20524;-63
2023/04/09 01:29:30;;;;;;;5.38;3.60;;;10.00;99.90;;;;;;5112980;28;20053;-65
2023/04/09 01:31:56;;;;;;;4.63;3.28;;;10.00;99.90;;;;;;5113102;28;20149;-64
2023/04/09 01:34:23;;;;;;;3.47;3.17;;;10.00;99.90;;;;;;5112937;28;20050;-65
2023/04/09 01:36:54;;;;;;;5.18;3.67;;;10.00;99.90;;;;;;5112667;28;20028;-64
2023/04/09 01:39:20;;;;;;;5.40;4.07;;;10.00;99.90;;;;;;5113186;28;20047;-64
2023/04/09 01:41:47;;;;;;;6.03;3.92;;;9.80;99.90;;;;;;5112053;28;20028;-64
2023/04/09 01:44:13;;;;;;;5.05;4.25;;;9.90;99.90;;;;;;5112473;28;20020;-64
2023/04/09 01:46:40;;;;;;;4.47;3.63;;;10.00;99.90;;;;;;5112777;28;20023;-64
2023/04/09 01:49:08;;;;;;;3.67;3.28;;;10.00;99.90;;;;;;5112715;28;20110;-65
2023/04/09 01:51:34;;;;;;;4.90;3.50;;;10.00;99.90;;;;;;5112873;28;20019;-65
2023/04/09 01:54:00;;;;;;;4.60;3.90;;;9.90;99.90;;;;;;5112799;28;20034;-64
2023/04/09 01:56:26;;;;;;;4.63;3.75;;;9.80;99.90;;;;;;5112302;28;20020;-64
2023/04/09 01:58:51;;;;;;;4.45;3.80;;;9.90;99.90;;;;;;5112337;28;20141;-64
2023/04/09 02:01:48;;;;;;;5.70;3.72;;;10.00;99.90;;;;;;5112673;28;20036;-64
2023/04/09 02:04:20;;;;;;;6.22;4.15;;;10.00;99.90;;;;;;5111606;28;20036;-65
2023/04/09 02:07:09;;;;;;;5.10;4.07;;;10.00;99.90;;;;;;5112296;28;20051;-64
2023/04/09 02:09:38;;;;;;;5.15;4.40;;;9.90;99.90;;;;;;5111911;28;20054;-64
2023/04/09 02:12:06;;;;;;;6.57;4.60;;;9.80;99.90;;;;;;5112643;28;20020;-64
2023/04/09 02:14:33;;;;;;;4.97;4.45;;;9.70;99.90;;;;;;5112582;28;20027;-65
2023/04/09 02:17:00;;;;;;;6.18;4.65;;;9.70;99.90;;;;;;5094194;28;20032;-64
2023/04/09 02:19:44;;;;;;;8.75;4.78;;;9.60;99.90;;;;;;5112317;28;20499;-65
2023/04/09 02:22:10;;;;;;;6.18;4.82;;;9.70;99.90;;;;;;5112318;28;20100;-64
2023/04/09 02:24:36;;;;;;;6.82;4.60;;;9.60;99.90;;;;;;5111731;28;20052;-65
2023/04/09 02:27:02;;;;;;;5.20;4.30;;;9.60;99.90;;;;;;5112271;28;20023;-64
2023/04/09 02:29:29;;;;;;;7.72;4.40;;;9.60;99.90;;;;;;5112140;28;20111;-64
2023/04/09 02:31:55;;;;;;;4.95;4.07;;;9.50;99.90;;;;;;5112390;28;20024;-64
2023/04/09 02:34:20;;;;;;;4.95;3.65;;;9.60;99.90;;;;;;5094313;28;20039;-64
2023/04/09 02:36:46;;;;;;;4.57;4.00;;;9.60;99.90;;;;;;5112155;28;20495;-64
2023/04/09 02:39:12;;;;;;;4.35;3.72;;;9.60;99.90;;;;;;5112135;28;20533;-64
2023/04/09 02:41:37;;;;;;;4.38;3.78;;;9.60;99.90;;;;;;5112177;28;20028;-64
2023/04/09 02:44:03;;;;;;;5.32;3.80;;;9.70;99.90;;;;;;5112283;28;20102;-64
2023/04/09 02:46:29;;;;;;;6.75;3.80;;;9.60;99.90;;;;;;5112588;28;20039;-64
2023/04/09 02:48:55;;;;;;;4.28;3.28;;;9.60;99.90;;;;;;5112085;28;20373;-64
2023/04/09 02:51:20;;;;;;;4.10;3.70;;;9.50;99.90;;;;;;5112129;28;20027;-67
2023/04/09 02:53:46;;;;;;;4.55;3.58;;;9.50;99.90;;;;;;5113136;28;20173;-64
2023/04/09 02:56:12;;;;;;;3.67;3.28;;;9.50;99.90;;;;;;5115859;28;20503;-63
2023/04/09 02:58:37;;;;;;;5.97;3.63;;;9.50;99.90;;;;;;5115728;28;20104;-64
2023/04/09 03:01:03;;;;;;;4.53;3.35;;;9.40;99.90;;;;;;5115849;28;20031;-64
2023/04/09 03:03:29;;;;;;;5.32;3.50;;;9.40;99.90;;;;;;5115731;28;20023;-64
2023/04/09 03:05:55;;;;;;;5.13;3.70;;;9.40;99.90;;;;;;5115934;28;20040;-64
2023/04/09 03:08:21;;;;;;;5.20;3.45;;;9.40;99.90;;;;;;5115322;28;20394;-64
2023/04/09 03:10:47;;;;;;;6.80;3.72;;;9.30;99.90;;;;;;5115501;28;20102;-64
2023/04/09 03:13:12;;;;;;;4.07;3.33;;;9.30;99.90;;;;;;5115691;28;20027;-64
2023/04/09 03:15:38;;;;;;;4.43;3.00;;;9.20;99.90;;;;;;5115482;28;20031;-64
2023/04/09 03:18:04;;;;;;;5.70;3.30;;;9.30;99.90;;;;;;5115477;28;20083;-64
2023/04/09 03:20:29;;;;;;;5.13;3.30;;;9.20;99.90;;;;;;5115532;28;20023;-64
2023/04/09 03:22:55;;;;;;;3.47;3.17;;;9.20;99.90;;;;;;5115113;28;20578;-64
2023/04/09 03:25:21;;;;;;;4.50;3.58;;;9.20;99.90;;;;;;5115195;28;20503;-64
2023/04/09 03:27:46;;;;;;;5.03;3.40;;;9.20;99.90;;;;;;5115321;28;20051;-64
2023/04/09 03:30:12;;;;;;;4.25;3.50;;;9.10;99.90;;;;;;5115261;28;20019;-64
2023/04/09 03:32:38;;;;;;;3.58;3.10;;;9.10;99.90;;;;;;5115340;28;20539;-65
2023/04/09 03:35:04;;;;;;;3.67;3.30;;;9.10;99.90;;;;;;5114900;28;20031;-64
2023/04/09 03:37:30;;;;;;;4.97;3.50;;;9.20;99.90;;;;;;5115074;28;20020;-64
2023/04/09 03:39:56;;;;;;;3.90;3.20;;;9.10;99.90;;;;;;5115320;28;20077;-64
2023/04/09 03:42:21;;;;;;;5.32;3.47;;;9.10;99.90;;;;;;5115118;28;20027;-64
2023/04/09 03:44:47;;;;;;;3.67;3.13;;;9.10;99.90;;;;;;5096692;28;20031;-64
2023/04/09 03:47:12;;;;;;;3.45;3.10;;;9.10;99.90;;;;;;5115427;28;20023;-64
2023/04/09 03:49:38;;;;;;;5.22;3.33;;;9.10;99.90;;;;;;5114753;28;20118;-64
2023/04/09 03:52:05;;;;;;;4.70;2.75;;;9.00;99.90;;;;;;5114553;28;20027;-64
2023/04/09 03:54:31;;;;;;;3.92;3.42;;;9.10;99.90;;;;;;5115070;28;20112;-64
2023/04/09 03:56:57;;;;;;;5.32;3.50;;;9.10;99.90;;;;;;5114787;28;20106;-64
2023/04/09 03:59:23;;;;;;;4.07;3.05;;;8.90;99.90;;;;;;5114904;28;20024;-64
2023/04/09 04:01:49;;;;;;;4.78;3.42;;;8.70;99.90;;;;;;5114756;28;20024;-64
2023/04/09 04:04:14;;;;;;;3.58;3.13;;;8.70;99.90;;;;;;5114460;28;20384;-64
2023/04/09 04:06:40;;;;;;;4.93;3.13;;;8.70;99.90;;;;;;5113527;28;20108;-64
2023/04/09 04:09:06;;;;;;;3.78;3.08;;;8.90;99.90;;;;;;5114485;28;20094;-64
2023/04/09 04:11:32;;;;;;;3.92;3.38;;;8.80;99.90;;;;;;5114398;28;20499;-64
2023/04/09 04:13:57;;;;;;;6.63;4.05;;;8.70;99.90;;;;;;5114871;28;20068;-64
2023/04/09 04:16:23;;;;;;;8.38;5.13;;;8.70;99.90;;;;;;5114250;28;20468;-64
2023/04/09 04:18:50;;;;;;;7.32;5.03;;;8.60;99.90;;;;;;5114134;28;20028;-64
2023/04/09 04:21:16;;;;;;;6.93;4.90;;;8.60;99.90;;;;;;5114092;28;20100;-64
2023/04/09 04:23:42;;;;;;;5.05;4.53;;;8.60;99.90;;;;;;5114693;28;20066;-64
2023/04/09 04:26:11;;;;;;;5.40;4.07;;;8.50;99.90;;;;;;5113931;28;20075;-64
2023/04/09 04:28:38;;;;;;;4.35;3.90;;;8.50;99.90;;;;;;5114123;28;20028;-64
2023/04/09 04:31:09;;;;;;;5.82;3.92;;;8.50;99.90;;;;;;5114061;28;20030;-64
2023/04/09 04:33:36;;;;;;;5.03;3.33;;;8.50;99.90;;;;;;5113869;28;20110;-65
2023/04/09 04:36:12;;;;;;;5.55;3.45;;;8.40;99.90;;;;;;5114212;28;20450;-64
2023/04/09 04:38:40;;;;;;;4.65;3.45;;;8.30;99.90;;;;;;5114078;28;20061;-64
2023/04/09 04:41:06;;;;;;;5.90;3.22;;;8.20;99.90;;;;;;5113928;28;20111;-64
2023/04/09 04:43:32;;;;;;;3.88;3.10;;;8.20;99.90;;;;;;5113777;28;20106;-64
2023/04/09 04:45:58;;;;;;;3.67;2.88;;;8.20;99.90;;;;;;5113742;28;20032;-64
2023/04/09 04:48:24;;;;;;;4.45;3.03;;;8.20;99.90;;;;;;5113320;28;20051;-64
2023/04/09 04:51:01;;;;;;;5.18;2.67;;;8.20;99.90;;;;;;5114229;28;20476;-64
2023/04/09 04:53:27;;;;;;;3.88;3.03;;;8.30;99.90;;;;;;5113639;28;20016;-64
2023/04/09 04:55:53;;;;;;;6.47;3.00;;;8.20;99.90;;;;;;5113759;28;20593;-64
2023/04/09 04:58:19;;;;;;;3.63;2.95;;;8.20;99.90;;;;;;5095286;28;20023;-64
2023/04/09 05:00:45;;;;;;;5.70;3.53;;;8.30;99.90;;;;;;5113585;28;20026;-64
2023/04/09 05:03:11;;;;;;;4.65;2.70;;;8.30;99.90;;;;;;5113176;28;20383;-64
2023/04/09 05:05:37;;;;;;;6.60;3.28;;;8.20;99.90;;;;;;5113420;28;20016;-64
2023/04/09 05:08:03;;;;;;;4.22;3.10;;;8.20;99.90;;;;;;5113233;28;20391;-64
2023/04/09 05:10:28;;;;;;;4.30;3.00;;;8.40;99.90;;;;;;5113452;28;20369;-64
2023/04/09 05:12:54;;;;;;;5.68;3.15;;;8.40;99.90;;;;;;5113174;28;20368;-64
2023/04/09 05:15:20;;;;;;;5.60;3.00;;;8.40;99.90;;;;;;5113562;28;20390;-64
2023/04/09 05:17:45;;;;;;;4.15;3.08;;;8.40;99.90;;;;;;5112700;28;20027;-64
2023/04/09 05:20:11;;;;;;;4.47;3.00;;;8.20;99.90;;;;;;5113277;28;20078;-64
2023/04/09 05:22:37;;;;;;;5.35;3.30;;;8.20;99.90;;;;;;5113179;28;20099;-64
2023/04/09 05:25:03;;;;;;;5.85;2.90;;;8.10;99.90;;;;;;5112785;28;20449;-64
2023/04/09 05:27:29;;;;;;;4.38;3.33;;;8.20;99.90;;;;;;5113000;28;20447;-64
2023/04/09 05:29:54;;;;;;;4.72;3.20;;;8.10;99.90;;;;;;5113297;28;20115;-64
2023/04/09 05:32:20;;;;;;;5.78;3.03;;;8.00;99.90;;;;;;5112703;28;20036;-64
2023/04/09 05:34:46;;;;;;;7.05;3.10;;;8.00;99.90;;;;;;5112891;28;20361;-64
2023/04/09 05:37:12;;;;;;;4.78;3.30;;;8.00;99.90;;;;;;5112747;28;20035;-64
2023/04/09 05:39:37;;;;;;;5.40;2.97;;;8.00;99.90;;;;;;5112856;28;20023;-68
2023/04/09 05:42:03;;;;;;;4.68;3.10;;;8.00;99.90;;;;;;5113080;28;20400;-65
2023/04/09 05:44:29;;;;;;;5.00;3.40;;;8.00;99.90;;;;;;5112691;28;20023;-66
2023/04/09 05:46:55;;;;;;;6.88;2.72;;;8.00;99.90;;;;;;5112421;28;20035;-66
2023/04/09 05:49:21;;;;;;;5.28;3.20;;;8.00;99.90;;;;;;5112704;28;20503;-66
2023/04/09 05:51:48;;;;;;;6.78;2.95;;;7.90;99.90;;;;;;5112856;28;20019;-65
2023/04/09 05:54:14;;;;;;;6.90;3.03;;;8.00;99.90;;;;;;5112635;28;20028;-65
2023/04/09 05:56:41;;;;;;;7.50;2.90;;;8.00;99.90;;;;;;5112620;28;20030;-65
2023/04/09 05:59:07;;;;;;;4.88;2.95;;;8.00;99.90;;;;;;5112447;28;20051;-66
2023/04/09 06:01:32;;;;;;;5.95;3.10;;;8.00;99.90;;;;;;5112273;28;20096;-66
2023/04/09 06:03:58;;;;;;;4.90;2.78;;;8.10;99.90;;;;;;5112647;28;20035;-68
2023/04/09 06:06:24;;;;;;;3.85;3.00;;;8.00;99.90;;;;;;5112568;28;20028;-65
2023/04/09 06:08:50;;;;;;;5.57;3.00;;;8.00;99.90;;;;;;5112293;28;20411;-65
2023/04/09 06:11:15;;;;;;;4.20;2.78;;;8.00;99.90;;;;;;5112596;28;20055;-65
2023/04/09 06:13:41;;;;;;;4.97;3.40;;;8.00;99.90;;;;;;5112384;28;20027;-65
2023/04/09 06:16:07;;;;;;;6.97;3.45;;;8.10;99.90;;;;;;5112435;28;20038;-65
2023/04/09 06:18:34;;;;;;;4.53;3.22;;;8.10;99.90;;;;;;5112540;28;20024;-65
2023/04/09 06:21:02;;;;;;;5.05;3.45;;;8.20;99.90;;;;;;5112386;28;20508;-65
2023/04/09 06:23:28;;;;;;;3.67;2.72;;;8.30;99.90;;;;;;5112449;28;20422;-65
2023/04/09 06:25:53;;;;;;;3.30;3.00;;;8.40;99.90;;;;;;5112282;28;20050;-66
2023/04/09 06:28:20;;;;;;;4.75;2.60;;;8.40;99.90;;;;;;5112695;28;20063;-65
2023/04/09 06:30:46;;;;;;;5.03;2.78;;;8.50;99.90;;;;;;5116418;28;20035;-65
2023/04/09 06:33:12;;;;;;;3.72;2.53;;;8.50;99.90;;;;;;5116450;28;20026;-65
2023/04/09 06:35:37;;;;;;;4.18;2.90;;;8.50;99.90;;;;;;5116260;28;20031;-66
2023/04/09 06:38:03;;;;;;;3.60;3.22;;;8.60;99.90;;;;;;5097867;28;20031;-66
2023/04/09 06:40:29;;;;;;;3.20;2.88;;;8.60;99.90;;;;;;5116291;28;20034;-65
2023/04/09 06:42:55;;;;;;;3.53;3.22;;;8.60;99.90;;;;;;5116011;28;20324;-65
2023/04/09 06:45:21;;;;;;;5.88;3.22;;;8.70;99.90;;;;;;5115782;28;20028;-65
2023/04/09 06:47:47;;;;;;;4.80;3.33;;;8.80;99.90;;;;;;5116114;28;20104;-65
2023/04/09 06:50:12;;;;;;;4.93;3.35;;;8.90;99.90;;;;;;5116384;28;20119;-65
2023/04/09 06:52:38;;;;;;;6.30;3.63;;;8.80;99.90;;;;;;5116145;28;20127;-65
2023/04/09 06:55:04;;;;;;;4.63;4.00;;;8.90;99.90;;;;;;5116105;28;20030;-65
2023/04/09 06:57:30;;;;;;;4.72;4.00;;;9.00;99.90;;;;;;5115720;28;20024;-65
2023/04/09 06:59:56;;;;;;;5.13;3.75;;;8.90;99.90;;;;;;5115593;28;20073;-65
2023/04/09 07:02:22;;;;;;;5.22;4.60;;;8.90;99.90;;;;;;5116045;28;20510;-65
2023/04/09 07:04:47;;;;;;;5.90;5.30;;;8.90;99.90;;;;;;5116115;28;20032;-65
2023/04/09 07:07:13;;;;;;;5.93;5.30;;;8.90;99.90;;;;;;5115809;28;20027;-66
2023/04/09 07:09:39;;;;;;;5.78;5.28;;;9.00;99.90;;;;;;5115473;28;20023;-66
2023/04/09 07:12:04;;;;;;;6.80;6.05;;;9.00;99.90;;;;;;5115498;28;20081;-65
2023/04/09 07:14:30;;;;;;;6.65;5.97;;;9.00;99.90;;;;;;5097410;28;20365;-65
2023/04/09 07:16:56;;;;;;;5.32;4.80;;;9.10;99.90;;;;;;5115555;28;20034;-65
2023/04/09 07:19:22;;;;;;;5.25;4.28;;;9.10;99.90;;;;;;5115390;28;20063;-65
2023/04/09 07:21:47;;;;;;;7.43;4.00;;;9.10;99.90;;;;;;5115516;28;20035;-65
2023/04/09 07:24:13;;;;;;;4.53;3.60;;;9.20;99.90;;;;;;5116381;28;20081;-65
2023/04/09 07:26:38;;;;;;;5.05;3.70;;;9.30;99.90;;;;;;5115140;28;20176;-65
2023/04/09 07:29:04;;;;;;;5.30;3.67;;;9.40;99.90;;;;;;5115162;28;20032;-65
2023/04/09 07:31:30;;;;;;;6.78;3.70;;;9.50;99.90;;;;;;5115600;28;20456;-65
2023/04/09 07:33:56;;;;;;;4.63;3.97;;;9.60;99.90;;;;;;5114967;28;20024;-65
2023/04/09 07:36:21;;;;;;;4.75;3.97;;;9.70;99.90;;;;;;5115552;28;20028;-65
2023/04/09 07:38:47;;;;;;;4.85;3.85;;;9.80;99.90;;;;;;5115114;28;20072;-65
2023/04/09 07:41:13;;;;;;;3.72;3.33;;;9.90;99.90;;;;;;5113758;28;20036;-65
2023/04/09 07:43:39;;;;;;;4.90;3.63;;;9.90;99.90;;;;;;5115142;28;20019;-65
2023/04/09 07:46:05;;;;;;;4.70;4.00;;;10.00;99.90;;;;;;5115013;28;20081;-65
2023/04/09 07:48:31;;;;;;;5.53;4.32;;;10.10;99.90;;;;;;5115055;28;20028;-65
2023/04/09 07:50:56;;;;;;;4.90;4.38;;;10.20;99.90;;;;;;5115037;28;20028;-65
2023/04/09 07:53:22;;;;;;;7.20;4.68;;;10.30;99.90;;;;;;5114940;28;20020;-65
2023/04/09 07:55:50;;;;;;;5.50;4.40;;;10.40;99.90;;;;;;5114704;28;20032;-66
2023/04/09 07:58:16;;;;;;;6.93;4.22;;;10.50;99.90;;;;;;5114585;28;20502;-65
2023/04/09 08:00:42;;;;;;;4.88;4.25;;;10.70;99.90;;;;;;5114735;28;20020;-66
2023/04/09 08:03:08;;;;;;;6.35;3.97;;;10.80;99.90;;;;;;5114940;28;20058;-65
2023/04/09 08:05:35;;;;;;;4.53;3.70;;;11.00;99.90;;;;;;5115026;28;20415;-65
2023/04/09 08:08:00;;;;;;;3.47;3.15;;;11.10;99.90;;;;;;5114558;28;20034;-65
2023/04/09 08:10:26;;;;;;;13.45;4.53;;;11.30;99.90;;;;;;5114425;28;20028;-65
2023/04/09 08:12:52;;;;;;;16.25;4.72;;;11.40;99.90;;;;;;5114209;28;20024;-65
2023/04/09 08:15:18;;;;;;;12.32;4.18;;;11.50;99.90;;;;;;5114583;28;20030;-65
2023/04/09 08:17:44;;;;;;;11.60;3.58;;;11.60;99.90;;;;;;5114834;28;20021;-65
2023/04/09 08:20:11;;;;;;;5.47;2.90;;;11.60;99.90;;;;;;5114437;28;20035;-65
2023/04/09 08:22:36;;;;;;;3.78;2.38;;;11.80;99.90;;;;;;5114441;28;20403;-66
2023/04/09 08:25:02;;;;;;;3.35;2.25;;;11.90;99.90;;;;;;5113962;28;20051;-65
2023/04/09 08:27:28;;;;;;;4.90;2.30;;;12.10;99.90;;;;;;5113974;28;20378;-66
2023/04/09 08:29:53;;;;;;;3.63;2.30;;;12.20;99.90;;;;;;5114178;28;20110;-65
2023/04/09 08:32:19;;;;;;;4.80;2.30;;;12.20;99.90;;;;;;5114162;28;20028;-65
2023/04/09 08:34:45;;;;;;;5.68;2.00;;;12.30;99.90;;;;;;5114105;28;20475;-65
2023/04/09 08:37:10;;;;;;;3.55;2.00;;;12.50;99.90;;;;;;5114046;28;20468;-65
2023/04/09 08:39:36;;;;;;;3.40;1.90;;;12.60;99.90;;;;;;5113747;28;20033;-66
2023/04/09 08:42:05;;;;;;;2.60;2.13;;;12.80;99.90;;;;;;5113550;28;20028;-65
2023/04/09 08:44:31;;;;;;;4.15;1.98;;;13.00;99.90;;;;;;5095553;28;20383;-65
2023/04/09 08:46:58;;;;;;;3.00;1.70;;;13.20;99.90;;;;;;5114315;28;20026;-65
2023/04/09 08:49:24;;;;;;;2.22;1.80;;;13.40;99.90;;;;;;5113173;28;20488;-66
2023/04/09 08:51:50;;;;;;;3.53;1.63;;;13.50;99.90;;;;;;5113792;28;20054;-65
2023/04/09 08:54:18;;;;;;;1.77;1.60;;;13.60;99.90;;;;;;5113815;28;20070;-65
2023/04/09 08:56:45;;;;;;;4.13;1.90;;;13.70;99.90;;;;;;5113295;28;20103;-65
2023/04/09 08:59:15;;;;;;;3.10;2.05;;;13.90;99.90;;;;;;5114039;28;20058;-66
2023/04/09 09:01:40;;;;;;;2.17;1.70;;;14.00;99.90;;;;;;5113486;28;20127;-65
2023/04/09 09:04:08;;;;;;;2.00;1.58;;;14.20;99.90;;;;;;5113568;28;20106;-66
2023/04/09 09:06:36;;;;;;;2.22;1.60;;;14.20;99.90;;;;;;5113679;28;20065;-66
2023/04/09 09:09:15;;;;;;;1.92;1.58;;;14.40;99.90;;;;;;5113640;28;20070;-66
2023/04/09 09:11:44;;;;;;;2.22;1.40;;;14.40;99.90;;;;;;5113152;28;20012;-66
2023/04/09 09:14:12;;;;;;;3.25;1.70;;;14.50;99.90;;;;;;5113153;28;20024;-65
2023/04/09 09:16:41;;;;;;;2.60;1.70;;;14.70;99.90;;;;;;5113276;28;20042;-65
2023/04/09 09:19:29;;;;;;;2.35;1.50;;;15.00;99.90;;;;;;5113332;28;20024;-66
2023/04/09 09:22:00;;;;;;;2.03;1.50;;;15.20;99.90;;;;;;5113096;28;20027;-66
2023/04/09 09:24:26;;;;;;;1.63;1.52;;;15.40;99.90;;;;;;5113133;28;20035;-65
2023/04/09 09:26:56;;;;;;;1.83;1.55;;;15.40;99.90;;;;;;5113163;28;20039;-65
2023/04/09 09:29:23;;;;;;;2.20;1.50;;;15.60;99.90;;;;;;5113018;28;20052;-66
2023/04/09 09:31:51;;;;;;;3.33;1.40;;;15.80;99.90;;;;;;5113469;28;20093;-66
2023/04/09 09:34:17;;;;;;;2.47;1.60;;;16.00;99.90;;;;;;5112747;28;20065;-66
2023/04/09 09:36:44;;;;;;;2.80;1.50;;;16.10;99.90;;;;;;5113150;28;20026;-66
2023/04/09 09:39:11;;;;;;;3.63;1.55;;;16.30;99.90;;;;;;5112524;28;20032;-66
2023/04/09 09:41:41;;;;;;;1.60;1.27;;;16.40;99.90;;;;;;5113059;28;20102;-65
2023/04/09 09:44:08;;;;;;;1.80;1.40;;;16.70;99.90;;;;;;5112736;28;20475;-66
2023/04/09 09:46:37;;;;;;;1.40;1.25;;;16.80;99.90;;;;;;5112827;28;20035;-66
2023/04/09 09:49:03;;;;;;;2.55;1.20;;;16.80;99.90;;;;;;5112996;28;20043;-66
2023/04/09 09:51:31;;;;;;;2.55;1.45;;;17.00;99.90;;;;;;5112563;28;20023;-66
2023/04/09 09:53:57;;;;;;;4.22;1.40;;;17.00;99.90;;;;;;5094169;28;20028;-65
2023/04/09 09:56:31;;;;;;;2.63;1.40;;;17.30;99.90;;;;;;5112743;28;20028;-65
2023/04/09 09:59:06;;;;;;;;;;;17.40;99.90;;;;;;5112932;28;20102;-66
2023/04/09 10:01:33;;;;;;;2.17;1.10;;;17.40;99.90;;;;;;5112521;28;19910;-66
2023/04/09 10:04:00;;;;;;;1.20;1.08;;;17.70;99.90;;;;;;5112258;28;20016;-66
2023/04/09 10:06:26;;;;;;;1.60;1.13;;;17.70;99.90;;;;;;5112524;28;20024;-65
2023/04/09 10:08:56;;;;;;;1.63;1.10;;;17.70;99.90;;;;;;5112191;28;20027;-66
2023/04/09 10:11:22;;;;;;;2.03;1.10;;;17.80;99.90;;;;;;5112521;28;20084;-66
2023/04/09 10:13:56;;;;;;;2.10;1.02;;;18.00;99.90;;;;;;5112461;28;20023;-66
2023/04/09 10:16:22;;;;;;;3.67;1.27;;;18.00;99.90;;;;;;5112510;28;20054;-65
2023/04/09 10:18:48;;;;;;;1.75;1.25;;;18.20;99.90;;;;;;5112534;28;20028;-66
2023/04/09 10:21:23;;;;;;;2.42;1.10;;;18.40;99.90;;;;;;5112759;28;20032;-65
2023/04/09 10:23:50;;;;;;;1.17;1.00;;;18.40;98.80;;;;;;5112131;28;20031;-66
2023/04/09 10:26:18;;;;;;;0.95;0.88;;;18.50;98.40;;;;;;5112044;28;20127;-65
2023/04/09 10:28:44;;;;;;;2.05;1.40;;;18.70;97.70;;;;;;5112417;28;20040;-66
2023/04/09 10:31:10;;;;;;;1.80;1.05;;;18.80;98.40;;;;;;5112363;28;20073;-66
2023/04/09 10:33:37;;;;;;;1.42;1.10;;;18.80;97.40;;;;;;5112541;28;20019;-66
2023/04/09 10:36:04;;;;;;;3.35;1.40;;;18.90;97.50;;;;;;5112086;28;20016;-65
2023/04/09 10:38:40;;;;;;;1.48;1.10;;;18.90;95.30;;;;;;5112049;28;20032;-66
2023/04/09 10:41:21;;;;;;;2.13;1.48;;;19.10;94.80;;;;;;5112181;28;20102;-66
2023/04/09 10:43:47;;;;;;;1.60;1.40;;;19.20;93.90;;;;;;5112268;28;20043;-66
2023/04/09 10:46:26;;;;;;;1.65;1.15;;;19.20;94.40;;;;;;5112150;28;20370;-66
2023/04/09 10:49:12;;;;;;;6.43;5.82;;;19.20;94.60;;;;;;5112188;28;20463;-66
2023/04/09 10:51:38;;;;;;;9.68;8.77;;;19.50;94.00;;;;;;5112150;28;20038;-66
2023/04/09 10:54:33;;;;;;;4.55;2.63;;;19.60;93.10;;;;;;5112016;28;20019;-66
2023/04/09 10:57:20;;;;;;;1.60;1.33;;;19.70;92.70;;;;;;5105162;28;20085;-66
2023/04/09 10:59:54;;;;;;;1.20;1.10;;;19.80;93.30;;;;;;5111789;28;20036;-66
2023/04/09 11:02:38;;;;;;;2.08;1.08;;;20.00;94.10;;;;;;5111932;28;20024;-66
2023/04/09 11:05:26;;;;;;;1.08;0.98;;;20.10;93.90;;;;;;5111717;28;20031;-65
2023/04/09 11:08:09;;;;;;;1.55;1.00;;;20.00;92.40;;;;;;5112006;28;20020;-66
2023/04/09 11:10:36;;;;;;;1.38;1.00;;;20.10;91.70;;;;;;5112376;28;20031;-66
2023/04/09 11:13:03;;;;;;;2.05;1.20;;;20.30;92.80;;;;;;5111691;28;20028;-66
2023/04/09 11:15:33;;;;;;;1.40;1.20;;;20.50;92.80;;;;;;5114007;28;20034;-66
2023/04/09 11:18:00;;;;;;;1.48;1.10;;;20.50;91.80;;;;;;5115596;28;20077;-66
2023/04/09 11:20:26;;;;;;;1.90;1.10;;;20.50;90.90;;;;;;5115128;28;20042;-66
2023/04/09 11:22:54;;;;;;;1.52;1.05;;;20.40;90.10;;;;;;5115475;28;20433;-66
2023/04/09 11:25:22;;;;;;;1.35;1.10;;;20.40;88.60;;;;;;5115084;28;20166;-66
2023/04/09 11:27:48;;;;;;;1.10;1.00;;;20.70;90.00;;;;;;5115759;28;20031;-66
2023/04/09 11:30:13;;;;;;;0.90;0.80;;;20.90;87.20;;;;;;5115377;28;20084;-66
2023/04/09 11:32:39;;;;;;;1.95;1.00;;;20.70;88.00;;;;;;5115286;28;20024;-66
2023/04/09 11:35:13;;;;;;;2.00;1.10;;;20.80;87.30;;;;;;5114918;28;20028;-66
2023/04/09 11:37:40;;;;;;;2.42;1.30;;;20.80;89.40;;;;;;5115085;28;20019;-66
2023/04/09 11:40:07;;;;;;;1.48;1.10;;;20.80;92.50;;;;;;5115137;28;20042;-66
2023/04/09 11:42:34;;;;;;;1.75;1.08;;;20.80;92.10;;;;;;5115153;28;20039;-66
2023/04/09 11:45:00;;;;;;;2.83;1.20;;;20.80;92.80;;;;;;5115040;28;20057;-66
2023/04/09 11:47:26;;;;;;;4.20;1.23;;;21.00;91.70;;;;;;5115165;28;20103;-66
2023/04/09 11:49:52;;;;;;;2.00;1.20;;;21.30;92.30;;;;;;5114499;28;20115;-66
2023/04/09 11:52:18;;;;;;;1.52;1.20;;;21.40;92.00;;;;;;5115280;28;20439;-66
2023/04/09 11:54:50;;;;;;;1.60;1.20;;;21.40;91.30;;;;;;5114928;28;20031;-66
2023/04/09 11:57:16;;;;;;;1.33;1.20;;;21.40;93.20;;;;;;5114875;28;20028;-66
2023/04/09 11:59:41;;;;;;;1.52;1.33;;;21.30;92.70;;;;;;5114529;28;20607;-66
2023/04/09 12:02:07;;;;;;;2.97;1.35;;;21.50;90.80;;;;;;5114510;28;20027;-66
2023/04/09 12:04:33;;;;;;;1.50;1.15;;;21.60;90.60;;;;;;5114754;28;20380;-66
2023/04/09 12:06:59;;;;;;;2.97;1.30;;;21.30;90.60;;;;;;5114593;28;20031;-66
2023/04/09 12:09:25;;;;;;;3.10;1.80;;;21.40;91.20;;;;;;5114459;28;20027;-66
2023/04/09 12:11:51;;;;;;;1.92;1.25;;;21.30;90.60;;;;;;5114657;28;20475;-66
2023/04/09 12:14:20;;;;;;;2.92;1.30;;;21.30;89.80;;;;;;5114526;28;20104;-66
2023/04/09 12:16:50;;;;;;;1.60;1.10;;;21.40;89.60;;;;;;5114507;28;20047;-66
2023/04/09 12:19:16;;;;;;;2.67;1.30;;;21.50;86.80;;;;;;5114194;28;20032;-66
2023/04/09 12:21:48;;;;;;;3.28;1.48;;;21.60;88.60;;;;;;5114294;28;20309;-66
2023/04/09 12:24:19;;;;;;;2.00;1.20;;;21.90;89.10;;;;;;5114249;28;20111;-66
2023/04/09 12:26:46;;;;;;;3.90;3.55;;;22.20;88.70;;;;;;5113498;28;20050;-66
2023/04/09 12:29:16;;;;;;;3.92;3.25;;;22.20;86.20;;;;;;5114347;28;20034;-66
2023/04/09 12:31:42;;;;;;;2.35;1.70;;;22.30;87.20;;;;;;5114258;28;20020;-66
2023/04/09 12:34:08;;;;;;;4.43;3.35;;;22.10;87.50;;;;;;5113690;28;20089;-66
2023/04/09 12:36:34;;;;;;;5.20;2.15;;;22.30;88.30;;;;;;5114094;28;20468;-66
2023/04/09 12:39:00;;;;;;;2.85;1.77;;;22.50;91.40;;;;;;5113854;28;20020;-66
2023/04/09 12:41:25;;;;;;;1.30;1.20;;;22.20;86.70;;;;;;5113967;28;20081;-67
2023/04/09 12:43:51;;;;;;;2.42;1.35;;;22.20;84.30;;;;;;5095253;28;20047;-66
2023/04/09 12:46:18;;;;;;;2.95;1.20;;;22.60;85.90;;;;;;5114248;28;20132;-66
2023/04/09 12:48:44;;;;;;;1.60;1.30;;;22.80;85.40;;;;;;5113421;28;20028;-66
2023/04/09 12:51:11;;;;;;;2.40;1.02;;;23.20;87.20;;;;;;5113713;28;20028;-66
2023/04/09 12:53:37;;;;;;;3.13;1.20;;;23.10;85.10;;;;;;5114094;28;20545;-66